Time;durP1;ratioP1;P1;durP2;ratioP2;P2;SDS_P1;SDS_P2;PMS_P1;PMS_P2;Temp;Humidity;BMP_temperature;BMP_pressure;BME280_temperature;BME280_humidity;BME280_pressure;Samples;Min_cycle;Max_cycle;Signal;HPM_P1;HPM_P2
2023/01/15 00:00:13;;;;;;;6.87;5.10;;;2.20;76.50;;;;;;5011053;28;20481;-66
2023/01/15 00:02:38;;;;;;;9.63;5.37;;;2.20;76.70;;;;;;4996320;28;20188;-65
2023/01/15 00:05:04;;;;;;;10.07;5.27;;;2.20;76.50;;;;;;4986401;28;20442;-65
2023/01/15 00:07:30;;;;;;;6.17;4.60;;;2.20;76.50;;;;;;5006431;28;20194;-66
2023/01/15 00:09:56;;;;;;;7.50;4.90;;;2.20;76.50;;;;;;4976353;28;20431;-66
2023/01/15 00:12:22;;;;;;;7.47;5.50;;;2.30;76.70;;;;;;5000883;28;20192;-65
2023/01/15 00:14:48;;;;;;;5.30;4.13;;;2.30;76.60;;;;;;4983373;28;20244;-66
2023/01/15 00:17:13;;;;;;;6.80;4.63;;;2.30;76.90;;;;;;4993604;28;20198;-66
2023/01/15 00:19:39;;;;;;;8.53;4.97;;;2.30;76.60;;;;;;5012903;28;20187;-65
2023/01/15 00:22:05;;;;;;;7.43;5.50;;;2.40;76.50;;;;;;5018156;28;20196;-66
2023/01/15 00:29:59;;;;;;;6.33;4.97;;;2.40;75.90;;;;;;5005826;28;20442;-66
2023/01/15 00:32:26;;;;;;;7.70;4.77;;;2.40;76.10;;;;;;5004461;28;20483;-66
2023/01/15 00:34:52;;;;;;;7.90;4.87;;;2.40;75.90;;;;;;5010599;28;20195;-65
2023/01/15 00:37:18;;;;;;;8.03;5.10;;;2.40;75.80;;;;;;5005833;28;20436;-66
2023/01/15 00:39:43;;;;;;;8.23;5.17;;;2.40;76.00;;;;;;4979409;28;20184;-65
2023/01/15 00:42:10;;;;;;;7.90;4.90;;;2.40;76.20;;;;;;4982043;28;20195;-66
2023/01/15 00:44:36;;;;;;;7.23;4.90;;;2.40;76.60;;;;;;4993154;28;20197;-65
2023/01/15 00:47:02;;;;;;;6.20;4.73;;;2.50;76.30;;;;;;5012208;28;20522;-66
2023/01/15 00:49:28;;;;;;;6.27;4.73;;;2.50;76.20;;;;;;5008025;28;20217;-66
2023/01/15 00:51:54;;;;;;;6.77;4.67;;;2.50;76.20;;;;;;4992949;28;20195;-65
2023/01/15 00:54:19;;;;;;;6.90;3.90;;;2.50;76.50;;;;;;5009437;28;20188;-65
2023/01/15 00:56:45;;;;;;;5.93;4.03;;;2.50;76.70;;;;;;5009303;28;20294;-66
2023/01/15 00:59:11;;;;;;;6.67;4.70;;;2.50;76.60;;;;;;4998578;28;20192;-66
2023/01/15 01:01:38;;;;;;;6.60;4.40;;;2.50;76.40;;;;;;4982515;28;20261;-66
2023/01/15 01:04:04;;;;;;;7.90;4.80;;;2.40;76.50;;;;;;4993829;28;20423;-65
2023/01/15 01:06:30;;;;;;;7.00;4.63;;;2.50;76.60;;;;;;4979821;28;20448;-65
2023/01/15 01:08:56;;;;;;;7.80;4.73;;;2.50;76.50;;;;;;5025779;28;20238;-65
2023/01/15 01:11:25;;;;;;;6.83;4.97;;;2.50;76.50;;;;;;4994338;28;20184;-66
2023/01/15 01:13:52;;;;;;;5.63;4.27;;;2.50;76.80;;;;;;5016547;28;20475;-65
2023/01/15 01:16:26;;;;;;;7.63;5.17;;;2.50;76.70;;;;;;5006771;28;20469;-65
2023/01/15 01:18:53;;;;;;;5.30;4.80;;;2.50;76.70;;;;;;5010786;28;20425;-66
2023/01/15 01:21:19;;;;;;;7.10;5.03;;;2.50;76.60;;;;;;5012035;28;20434;-66
2023/01/15 01:23:45;;;;;;;7.23;5.43;;;2.50;76.50;;;;;;4988035;28;20430;-66
2023/01/15 01:26:12;;;;;;;6.70;4.43;;;2.50;76.60;;;;;;4992421;28;20453;-66
2023/01/15 01:28:39;;;;;;;8.30;5.30;;;2.50;76.70;;;;;;5005907;28;20192;-66
2023/01/15 01:31:06;;;;;;;7.17;4.77;;;2.50;76.70;;;;;;4986197;28;20530;-65
2023/01/15 01:33:31;;;;;;;7.43;4.63;;;2.50;76.60;;;;;;5031811;28;20522;-66
2023/01/15 01:35:57;;;;;;;7.00;4.53;;;2.50;76.50;;;;;;5008364;28;20470;-65
2023/01/15 01:38:23;;;;;;;7.33;4.60;;;2.50;76.80;;;;;;4985203;28;20259;-66
2023/01/15 01:40:48;;;;;;;6.77;4.57;;;2.50;76.90;;;;;;4998075;28;20199;-66
2023/01/15 01:43:24;;;;;;;10.03;5.83;;;2.50;76.50;;;;;;5017238;28;20279;-66
2023/01/15 01:45:50;;;;;;;8.67;4.83;;;2.50;76.00;;;;;;5013121;28;20188;-66
2023/01/15 01:48:19;;;;;;;9.20;5.13;;;2.40;76.20;;;;;;4996435;28;20454;-66
2023/01/15 01:50:47;;;;;;;9.03;5.50;;;2.50;76.20;;;;;;5004173;28;20200;-66
2023/01/15 01:53:18;;;;;;;8.90;5.43;;;2.40;75.60;;;;;;5010090;28;20475;-65
2023/01/15 01:55:45;;;;;;;7.13;4.87;;;2.40;75.90;;;;;;5000326;28;20468;-66
2023/01/15 01:58:12;;;;;;;9.70;4.90;;;2.50;76.20;;;;;;5011735;28;20446;-65
2023/01/15 02:00:40;;;;;;;8.97;4.90;;;2.50;76.40;;;;;;5014574;28;20434;-66
2023/01/15 02:03:08;;;;;;;6.60;5.00;;;2.50;76.20;;;;;;5001513;28;20479;-66
2023/01/15 02:05:39;;;;;;;7.80;5.20;;;2.50;76.60;;;;;;5007634;28;20423;-65
2023/01/15 02:08:06;;;;;;;7.73;4.80;;;2.50;76.20;;;;;;4999273;28;20808;-66
2023/01/15 02:10:32;;;;;;;8.73;5.40;;;2.50;76.10;;;;;;4996430;28;20475;-66
2023/01/15 02:13:24;;;;;;;9.27;5.23;;;2.50;76.20;;;;;;4997217;28;20468;-66
2023/01/15 02:16:18;;;;;;;11.30;6.93;;;2.50;76.20;;;;;;5013585;28;20470;-65
2023/01/15 02:19:14;;;;;;;10.13;6.90;;;2.60;76.00;;;;;;4984739;28;20419;-65
2023/01/15 02:22:17;;;;;;;11.20;7.17;;;2.50;76.10;;;;;;4987098;28;20473;-66
2023/01/15 02:25:11;;;;;;;11.40;6.50;;;2.50;76.30;;;;;;5013538;28;20426;-65
2023/01/15 02:27:41;;;;;;;10.03;6.43;;;2.50;76.40;;;;;;5010665;28;20477;-66
2023/01/15 02:30:23;;;;;;;9.07;6.10;;;2.50;76.40;;;;;;5012881;28;20427;-66
2023/01/15 02:33:00;;;;;;;10.90;6.30;;;2.50;76.10;;;;;;4999709;28;20488;-65
2023/01/15 02:35:37;;;;;;;8.83;6.23;;;2.50;76.70;;;;;;5003301;28;20461;-66
2023/01/15 02:38:09;;;;;;;7.40;5.37;;;2.50;76.60;;;;;;5013107;28;20583;-65
2023/01/15 02:40:36;;;;;;;9.30;5.97;;;2.50;76.60;;;;;;5009553;28;20431;-65
2023/01/15 02:43:04;;;;;;;7.73;5.70;;;2.50;77.00;;;;;;5003249;28;20419;-66
2023/01/15 02:45:33;;;;;;;9.00;6.60;;;2.50;76.60;;;;;;5005986;28;20481;-66
2023/01/15 02:48:09;;;;;;;8.37;5.30;;;2.50;77.00;;;;;;5008878;28;20496;-66
2023/01/15 02:50:39;;;;;;;9.13;5.57;;;2.50;77.10;;;;;;5002808;28;20429;-65
2023/01/15 02:53:10;;;;;;;9.27;5.23;;;2.50;77.20;;;;;;5007844;28;20443;-66
2023/01/15 02:55:41;;;;;;;8.20;4.73;;;2.40;77.10;;;;;;5007036;28;20466;-65
2023/01/15 02:58:12;;;;;;;5.97;3.90;;;2.40;77.10;;;;;;5034536;28;20419;-65
2023/01/15 03:00:42;;;;;;;4.77;4.27;;;2.40;77.20;;;;;;5012669;28;20433;-65
2023/01/15 03:03:18;;;;;;;6.33;3.97;;;2.40;77.20;;;;;;4999933;28;20435;-65
2023/01/15 03:06:06;;;;;;;6.07;4.47;;;2.40;77.30;;;;;;5009108;28;20515;-65
2023/01/15 03:08:32;;;;;;;4.83;3.30;;;2.30;77.20;;;;;;5005160;28;20521;-65
2023/01/15 03:11:10;;;;;;;6.30;3.90;;;2.30;77.50;;;;;;4979321;28;20526;-65
2023/01/15 03:13:36;;;;;;;5.57;3.10;;;2.30;77.40;;;;;;5009458;28;20329;-65
2023/01/15 03:19:12;;;;;;;6.20;3.13;;;2.20;77.30;;;;;;5003191;28;20250;-66
2023/01/15 03:21:50;;;;;;;4.33;3.40;;;2.20;77.50;;;;;;4996311;28;20945;-66
2023/01/15 03:24:27;;;;;;;4.23;3.23;;;2.20;77.50;;;;;;5001633;28;20447;-66
2023/01/15 03:26:53;;;;;;;4.97;3.47;;;2.10;77.40;;;;;;4992595;28;20419;-66
2023/01/15 03:29:21;;;;;;;6.37;3.97;;;2.00;77.40;;;;;;4997266;28;20471;-65
2023/01/15 03:31:48;;;;;;;7.40;4.17;;;2.00;77.50;;;;;;4994767;28;20195;-65
2023/01/15 03:34:14;;;;;;;5.10;4.00;;;2.00;77.80;;;;;;4996927;28;20435;-66
2023/01/15 03:36:40;;;;;;;7.43;3.77;;;1.90;77.90;;;;;;5009998;28;20458;-66
2023/01/15 03:39:06;;;;;;;3.63;3.10;;;1.90;77.90;;;;;;5009739;28;20440;-65
2023/01/15 03:41:37;;;;;;;6.77;3.63;;;1.90;77.90;;;;;;5013080;28;20202;-66
2023/01/15 03:44:16;;;;;;;6.17;3.40;;;1.90;77.80;;;;;;5009307;28;20183;-66
2023/01/15 03:46:48;;;;;;;7.17;3.60;;;1.90;77.70;;;;;;5007874;28;20464;-65
2023/01/15 03:49:32;;;;;;;6.40;3.63;;;1.90;77.90;;;;;;4995284;28;20446;-66
2023/01/15 03:52:05;;;;;;;5.17;3.40;;;1.90;78.00;;;;;;5004323;28;20418;-65
2023/01/15 03:54:49;;;;;;;3.77;3.27;;;1.80;78.10;;;;;;5006272;28;20447;-65
2023/01/15 03:57:36;;;;;;;4.80;3.57;;;1.80;78.00;;;;;;4999922;28;20423;-66
2023/01/15 04:00:09;;;;;;;4.30;3.70;;;1.80;78.10;;;;;;5000255;28;20470;-66
2023/01/15 04:02:37;;;;;;;5.17;3.20;;;1.80;78.00;;;;;;5000870;28;20421;-66
2023/01/15 04:05:03;;;;;;;3.47;3.03;;;1.80;77.90;;;;;;4995276;28;20481;-66
2023/01/15 04:07:30;;;;;;;3.70;2.63;;;1.80;77.90;;;;;;4987946;28;20431;-66
2023/01/15 04:09:56;;;;;;;6.67;3.43;;;1.80;77.90;;;;;;4980682;28;20465;-66
2023/01/15 04:12:22;;;;;;;4.40;3.17;;;1.80;77.60;;;;;;4992145;28;20424;-66
2023/01/15 04:14:47;;;;;;;5.27;3.10;;;1.80;77.80;;;;;;5016945;28;20501;-66
2023/01/15 04:17:13;;;;;;;4.57;3.20;;;1.80;77.90;;;;;;5000036;28;20184;-65
2023/01/15 04:19:39;;;;;;;7.10;3.10;;;1.80;77.90;;;;;;5006974;28;20196;-66
2023/01/15 04:22:04;;;;;;;3.83;3.03;;;1.80;77.80;;;;;;5013919;28;20206;-66
2023/01/15 04:24:30;;;;;;;5.00;3.30;;;1.70;77.80;;;;;;4994342;28;20239;-66
2023/01/15 04:26:56;;;;;;;4.97;3.33;;;1.70;77.90;;;;;;4992586;28;20223;-66
2023/01/15 04:29:21;;;;;;;3.97;3.20;;;1.70;78.10;;;;;;5002036;28;20243;-66
2023/01/15 04:31:47;;;;;;;3.83;3.30;;;1.70;78.00;;;;;;4997071;28;20192;-66
2023/01/15 04:34:13;;;;;;;4.27;3.03;;;1.70;78.00;;;;;;4993455;28;20196;-66
2023/01/15 04:36:39;;;;;;;3.97;3.27;;;1.60;77.90;;;;;;5022306;28;20232;-65
2023/01/15 04:39:05;;;;;;;4.43;3.03;;;1.60;78.30;;;;;;5008342;28;20225;-66
2023/01/15 04:44:15;;;;;;;5.07;3.83;;;1.50;78.20;;;;;;5022174;28;20187;-65
2023/01/15 04:46:43;;;;;;;4.37;3.80;;;1.40;78.40;;;;;;4978374;28;20944;-66
2023/01/15 04:49:12;;;;;;;3.47;2.90;;;1.40;78.40;;;;;;5006755;28;20195;-65
2023/01/15 04:51:38;;;;;;;4.40;2.97;;;1.40;78.30;;;;;;5001772;28;20435;-65
2023/01/15 04:54:06;;;;;;;4.37;3.20;;;1.40;78.30;;;;;;4981704;28;20977;-66
2023/01/15 04:56:36;;;;;;;5.27;3.27;;;1.40;78.50;;;;;;5010267;28;20459;-65
2023/01/15 04:59:02;;;;;;;4.10;3.10;;;1.40;78.50;;;;;;5013346;28;20465;-66
2023/01/15 05:01:28;;;;;;;3.30;3.00;;;1.40;78.40;;;;;;5009250;28;20466;-65
2023/01/15 05:03:53;;;;;;;5.00;2.90;;;1.40;78.50;;;;;;4984116;28;20211;-65
2023/01/15 05:06:19;;;;;;;5.43;3.50;;;1.40;78.70;;;;;;4994158;28;20196;-66
2023/01/15 05:08:45;;;;;;;4.53;3.03;;;1.40;78.50;;;;;;5012722;28;20204;-66
2023/01/15 05:11:11;;;;;;;4.00;3.07;;;1.30;78.70;;;;;;4999403;28;20192;-65
2023/01/15 05:13:37;;;;;;;4.57;3.10;;;1.10;79.00;;;;;;5000024;28;20259;-66
2023/01/15 05:16:17;;;;;;;3.77;3.00;;;1.10;79.30;;;;;;4999909;28;20466;-66
2023/01/15 05:18:44;;;;;;;6.30;2.87;;;1.20;79.10;;;;;;4997347;28;20671;-65
2023/01/15 05:21:18;;;;;;;4.63;3.30;;;1.20;79.00;;;;;;5003481;28;20431;-66
2023/01/15 05:23:43;;;;;;;4.57;3.03;;;1.20;79.10;;;;;;4999155;28;20431;-65
2023/01/15 05:26:09;;;;;;;4.13;3.10;;;1.20;79.10;;;;;;5001081;28;20475;-66
2023/01/15 05:28:35;;;;;;;3.73;2.87;;;1.10;79.30;;;;;;5004137;28;20199;-66
2023/01/15 05:31:28;;;;;;;5.93;2.90;;;1.10;79.40;;;;;;5021774;28;20199;-66
2023/01/15 05:33:54;;;;;;;3.40;2.83;;;1.10;79.20;;;;;;5011425;28;20200;-66
2023/01/15 05:36:25;;;;;;;4.03;3.23;;;1.10;79.20;;;;;;4991433;28;20470;-65
2023/01/15 05:38:53;;;;;;;5.80;3.67;;;1.10;79.40;;;;;;5009121;28;20453;-65
2023/01/15 05:44:09;;;;;;;4.40;3.00;;;1.10;79.50;;;;;;5006792;28;20507;-65
2023/01/15 05:46:37;;;;;;;4.23;2.83;;;1.10;79.50;;;;;;5016931;28;20425;-65
2023/01/15 05:49:06;;;;;;;5.37;3.13;;;1.10;79.50;;;;;;5014881;28;20465;-65
2023/01/15 05:51:36;;;;;;;5.73;4.37;;;1.10;79.30;;;;;;4999033;28;20518;-63
2023/01/15 05:54:03;;;;;;;4.43;2.77;;;1.00;79.50;;;;;;5001681;28;20455;-62
2023/01/15 05:56:29;;;;;;;4.57;3.33;;;1.00;79.60;;;;;;4998340;28;20463;-63
2023/01/15 05:58:55;;;;;;;4.97;3.10;;;1.00;79.50;;;;;;5010947;28;20435;-63
2023/01/15 06:01:21;;;;;;;5.60;3.57;;;1.00;79.70;;;;;;4984365;28;20454;-62
2023/01/15 06:03:48;;;;;;;3.97;2.67;;;1.00;79.80;;;;;;5007069;28;20204;-62
2023/01/15 06:06:15;;;;;;;3.97;3.10;;;1.00;79.90;;;;;;4989409;28;20475;-62
2023/01/15 06:08:41;;;;;;;5.10;3.20;;;1.00;80.00;;;;;;5001330;28;20423;-62
2023/01/15 06:11:07;;;;;;;5.80;3.30;;;1.10;80.00;;;;;;5010423;28;20468;-63
2023/01/15 06:13:33;;;;;;;8.77;4.27;;;1.10;80.20;;;;;;5001218;28;20205;-61
2023/01/15 06:16:00;;;;;;;7.07;3.60;;;1.10;80.30;;;;;;5005550;28;20294;-62
2023/01/15 06:18:26;;;;;;;3.77;3.00;;;1.00;80.30;;;;;;5010133;28;20451;-62
2023/01/15 06:20:51;;;;;;;6.30;4.17;;;1.00;80.50;;;;;;4992934;28;20455;-63
2023/01/15 06:23:18;;;;;;;5.13;3.90;;;1.00;80.20;;;;;;4993383;28;20184;-62
2023/01/15 06:25:44;;;;;;;7.10;3.47;;;1.00;80.20;;;;;;5005781;28;20215;-63
2023/01/15 06:28:10;;;;;;;3.83;3.37;;;1.00;80.10;;;;;;5007340;28;20517;-63
2023/01/15 06:30:38;;;;;;;8.63;3.97;;;1.00;80.00;;;;;;5012879;28;20291;-63
2023/01/15 06:33:04;;;;;;;6.70;3.80;;;1.00;79.90;;;;;;5024148;28;20467;-63
2023/01/15 06:35:30;;;;;;;6.27;5.37;;;0.90;80.20;;;;;;5007799;28;20493;-63
2023/01/15 06:37:55;;;;;;;6.53;5.03;;;0.90;80.00;;;;;;5005233;28;20439;-63
2023/01/15 06:40:22;;;;;;;5.37;4.13;;;0.80;80.80;;;;;;4997527;28;20424;-63
2023/01/15 06:48:25;;;;;;;5.40;3.47;;;1.00;80.90;;;;;;4999950;28;20708;-62
2023/01/15 06:50:55;;;;;;;6.07;3.97;;;1.00;80.70;;;;;;5019798;28;20555;-62
2023/01/15 06:53:21;;;;;;;4.43;3.37;;;1.00;80.70;;;;;;5001769;28;20423;-62
2023/01/15 06:55:47;;;;;;;4.63;3.13;;;1.10;80.90;;;;;;4994288;28;20525;-62
2023/01/15 06:58:13;;;;;;;6.43;4.10;;;1.10;80.90;;;;;;5002894;28;20270;-62
2023/01/15 07:00:41;;;;;;;5.87;3.87;;;1.10;80.60;;;;;;5020276;28;20994;-62
2023/01/15 07:03:07;;;;;;;5.60;4.03;;;1.10;80.60;;;;;;4997816;28;20185;-62
2023/01/15 07:05:33;;;;;;;5.63;3.43;;;1.10;80.40;;;;;;4996515;28;20443;-62
2023/01/15 07:07:59;;;;;;;8.27;3.57;;;1.20;80.40;;;;;;4992268;28;20188;-62
2023/01/15 07:10:24;;;;;;;4.57;3.60;;;1.20;80.40;;;;;;4986726;28;20187;-62
2023/01/15 07:12:50;;;;;;;5.03;3.37;;;1.20;80.50;;;;;;4996918;28;20430;-62
2023/01/15 07:15:16;;;;;;;6.87;4.33;;;1.30;80.50;;;;;;5021590;28;20240;-62
2023/01/15 07:17:42;;;;;;;5.53;3.80;;;1.20;80.60;;;;;;4982388;28;20222;-64
2023/01/15 07:20:08;;;;;;;4.20;3.50;;;1.30;80.50;;;;;;5022207;28;20275;-62
2023/01/15 07:22:34;;;;;;;7.93;4.03;;;1.40;80.60;;;;;;5002388;28;20263;-61
2023/01/15 07:25:00;;;;;;;4.50;4.10;;;1.40;80.60;;;;;;5018582;28;20517;-64
2023/01/15 07:27:26;;;;;;;8.67;4.23;;;1.40;80.70;;;;;;4988513;28;20185;-62
2023/01/15 07:29:51;;;;;;;4.67;3.90;;;1.50;80.60;;;;;;5001793;28;20432;-63
2023/01/15 07:32:17;;;;;;;5.23;3.93;;;1.60;80.40;;;;;;4993954;28;20258;-62
2023/01/15 07:34:43;;;;;;;6.03;4.13;;;1.70;80.50;;;;;;5010496;28;20187;-62
2023/01/15 07:37:09;;;;;;;6.47;4.07;;;1.70;80.50;;;;;;5000226;28;20482;-62
2023/01/15 07:39:35;;;;;;;7.50;4.27;;;1.80;80.70;;;;;;4979077;28;20188;-62
2023/01/15 07:50:23;;;;;;;6.10;4.87;;;2.10;79.40;;;;;;5003474;28;20434;-62
2023/01/15 07:52:49;;;;;;;5.67;4.37;;;2.20;79.70;;;;;;5011283;28;20426;-62
2023/01/15 07:55:15;;;;;;;6.40;4.50;;;2.30;79.90;;;;;;5008020;28;20458;-62
2023/01/15 07:57:41;;;;;;;5.67;4.47;;;2.40;79.70;;;;;;5000723;28;20455;-63
2023/01/15 08:00:20;;;;;;;4.93;3.93;;;2.40;79.50;;;;;;5036501;28;20212;-62
2023/01/15 08:02:48;;;;;;;6.57;4.30;;;2.50;79.30;;;;;;5002599;28;20418;-63
2023/01/15 08:05:14;;;;;;;5.43;3.83;;;2.60;79.00;;;;;;5002910;28;20435;-63
2023/01/15 08:07:41;;;;;;;5.90;4.20;;;2.70;78.40;;;;;;4997091;28;20446;-63
2023/01/15 08:10:09;;;;;;;5.30;4.50;;;2.80;78.60;;;;;;4992522;28;20448;-63
2023/01/15 08:15:19;;;;;;;6.93;3.93;;;2.90;78.30;;;;;;5008773;28;20861;-62
2023/01/15 08:17:47;;;;;;;6.23;4.83;;;3.00;77.80;;;;;;4982791;28;20915;-62
2023/01/15 08:20:20;;;;;;;5.80;4.80;;;3.10;77.60;;;;;;5010318;28;20282;-63
2023/01/15 08:22:46;;;;;;;5.40;4.87;;;3.10;77.00;;;;;;5009157;28;20420;-63
2023/01/15 08:25:18;;;;;;;6.63;5.27;;;3.20;76.80;;;;;;5008159;28;20437;-63
2023/01/15 08:27:44;;;;;;;6.50;5.33;;;3.20;76.40;;;;;;5009142;28;20450;-63
2023/01/15 08:30:14;;;;;;;6.70;4.77;;;3.30;76.50;;;;;;5037316;28;20432;-62
2023/01/15 08:32:39;;;;;;;8.83;5.33;;;3.30;76.50;;;;;;5000105;28;20435;-63
2023/01/15 08:35:06;;;;;;;5.87;4.97;;;3.30;76.10;;;;;;4990521;28;20445;-63
2023/01/15 08:37:31;;;;;;;7.17;5.63;;;3.40;76.80;;;;;;4998175;28;20199;-63
2023/01/15 08:39:57;;;;;;;6.83;4.90;;;3.50;76.50;;;;;;4993357;28;20442;-63
2023/01/15 08:42:23;;;;;;;7.20;5.43;;;3.50;76.70;;;;;;5024629;28;20223;-63
2023/01/15 08:44:49;;;;;;;8.33;4.97;;;3.50;75.90;;;;;;4996675;28;20199;-63
2023/01/15 08:47:16;;;;;;;7.17;4.70;;;3.60;75.80;;;;;;4996010;28;20192;-63
2023/01/15 08:49:42;;;;;;;7.37;4.97;;;3.60;75.30;;;;;;4992820;28;20196;-63
2023/01/15 08:52:08;;;;;;;6.87;4.93;;;3.60;72.90;;;;;;4987588;28;20439;-63
2023/01/15 08:54:34;;;;;;;9.53;5.00;;;3.60;73.70;;;;;;5008346;28;20447;-63
2023/01/15 08:57:00;;;;;;;5.17;3.73;;;3.70;73.00;;;;;;5003679;28;20682;-63
2023/01/15 08:59:26;;;;;;;7.87;4.77;;;3.70;73.80;;;;;;4992425;28;20655;-63
2023/01/15 09:01:52;;;;;;;7.63;4.80;;;3.80;73.90;;;;;;5022405;28;20443;-63
2023/01/15 09:04:19;;;;;;;7.10;4.67;;;3.90;73.70;;;;;;5003039;28;20227;-63
2023/01/15 09:06:46;;;;;;;6.67;4.33;;;4.00;73.80;;;;;;5007440;28;20188;-63
2023/01/15 09:09:12;;;;;;;6.23;4.43;;;4.10;73.40;;;;;;5039201;28;20474;-63
2023/01/15 09:11:39;;;;;;;5.13;4.07;;;4.20;73.40;;;;;;4985242;28;20786;-63
2023/01/15 09:14:06;;;;;;;6.63;5.37;;;4.30;73.00;;;;;;4997840;28;20493;-63
2023/01/15 09:16:33;;;;;;;7.40;5.50;;;4.40;72.30;;;;;;4989790;28;20518;-63
2023/01/15 09:18:59;;;;;;;6.17;4.53;;;4.40;72.40;;;;;;5010197;28;20427;-63
2023/01/15 09:21:25;;;;;;;11.13;6.67;;;4.50;72.90;;;;;;4984308;28;20429;-63
2023/01/15 09:23:50;;;;;;;19.77;13.63;;;4.60;72.50;;;;;;5009294;28;20188;-63
2023/01/15 09:26:28;;;;;;;21.27;15.10;;;4.70;72.80;;;;;;5009347;28;20219;-63
2023/01/15 09:28:54;;;;;;;12.10;7.70;;;4.90;73.40;;;;;;5004912;28;20195;-63
2023/01/15 09:31:21;;;;;;;7.10;5.77;;;5.00;72.40;;;;;;4998096;28;20428;-63
2023/01/15 09:33:46;;;;;;;7.43;4.83;;;5.00;72.00;;;;;;4978743;28;20498;-63
2023/01/15 09:36:18;;;;;;;6.23;4.63;;;5.10;70.70;;;;;;5007891;28;20471;-63
2023/01/15 09:38:44;;;;;;;6.07;4.30;;;5.20;69.40;;;;;;5000564;28;20259;-64
2023/01/15 09:42:04;;;;;;;7.00;4.53;;;5.30;68.30;;;;;;5032894;28;20980;-64
2023/01/15 09:44:23;;;;;;;8.60;4.40;;;5.50;66.10;;;;;;5002945;28;20430;-64
2023/01/15 09:46:57;;;;;;;7.07;4.30;;;5.50;66.20;;;;;;5011466;28;20447;-64
2023/01/15 09:49:35;;;;;;;6.23;4.23;;;5.50;66.80;;;;;;5003815;28;20434;-63
2023/01/15 09:52:43;;;;;;;9.00;4.83;;;5.60;65.50;;;;;;5008552;28;21047;-64
2023/01/15 09:55:24;;;;;;;9.43;6.27;;;5.60;64.90;;;;;;5008882;28;20448;-64
2023/01/15 09:57:53;;;;;;;8.27;5.63;;;5.70;65.40;;;;;;5010941;28;20421;-64
2023/01/15 10:00:25;;;;;;;7.07;4.63;;;5.70;65.40;;;;;;5004700;28;20934;-64
2023/01/15 10:03:20;;;;;;;8.23;5.23;;;5.80;65.00;;;;;;5001297;28;20445;-64
2023/01/15 10:05:59;;;;;;;7.20;4.87;;;5.80;65.70;;;;;;5030267;28;20926;-64
2023/01/15 10:08:37;;;;;;;9.50;6.53;;;5.80;65.40;;;;;;5014065;28;20427;-64
2023/01/15 10:11:21;;;;;;;8.77;5.17;;;5.80;64.70;;;;;;5007862;28;20433;-64
2023/01/15 10:13:59;;;;;;;6.93;4.87;;;5.90;65.10;;;;;;5009821;28;21056;-63
2023/01/15 10:16:27;;;;;;;7.83;5.83;;;5.90;65.60;;;;;;5002227;28;20522;-64
2023/01/15 10:18:56;;;;;;;8.63;4.57;;;6.00;65.80;;;;;;5013142;28;20411;-63
2023/01/15 10:21:34;;;;;;;7.40;5.00;;;6.00;65.00;;;;;;5010838;28;20469;-63
2023/01/15 10:24:17;;;;;;;9.97;5.10;;;6.10;64.50;;;;;;5012324;28;20454;-63
2023/01/15 10:26:55;;;;;;;5.43;3.90;;;6.10;64.80;;;;;;5001101;28;20492;-64
2023/01/15 10:29:43;;;;;;;8.17;4.90;;;6.10;64.00;;;;;;5012012;28;20457;-64
2023/01/15 10:32:17;;;;;;;7.33;4.27;;;6.10;63.90;;;;;;5002847;28;20443;-63
2023/01/15 10:34:59;;;;;;;11.03;5.53;;;6.10;64.20;;;;;;5006496;28;20464;-63
2023/01/15 10:37:32;;;;;;;5.30;3.87;;;6.10;63.00;;;;;;5009232;28;21109;-63
2023/01/15 10:40:16;;;;;;;6.77;4.50;;;6.20;64.10;;;;;;5046839;28;20430;-63
2023/01/15 10:42:53;;;;;;;4.73;4.23;;;6.30;64.00;;;;;;5022095;28;20449;-63
2023/01/15 10:45:26;;;;;;;5.47;3.77;;;6.30;64.10;;;;;;5004541;28;20516;-63
2023/01/15 10:48:01;;;;;;;6.17;3.70;;;6.40;63.40;;;;;;5003589;28;20455;-61
2023/01/15 10:50:27;;;;;;;6.17;3.47;;;6.40;61.60;;;;;;5009955;28;20429;-62
2023/01/15 10:53:25;;;;;;;8.27;3.63;;;6.50;61.40;;;;;;4992368;28;20442;-64
2023/01/15 10:55:56;;;;;;;6.97;4.77;;;6.50;61.10;;;;;;5025950;28;20218;-64
2023/01/15 10:58:44;;;;;;;4.80;3.70;;;6.60;62.50;;;;;;5001077;28;20427;-63
2023/01/15 11:01:18;;;;;;;5.80;3.10;;;6.70;61.90;;;;;;5006646;28;20428;-63
2023/01/15 11:03:44;;;;;;;10.30;6.63;;;6.70;63.40;;;;;;5008013;28;20458;-62
2023/01/15 11:06:16;;;;;;;7.87;5.60;;;6.80;61.60;;;;;;5008641;28;20475;-64
2023/01/15 11:08:54;;;;;;;6.67;4.53;;;6.90;63.20;;;;;;5000699;28;20423;-63
2023/01/15 11:20:18;;;;;;;4.80;4.07;;;7.20;60.90;;;;;;5001519;28;20457;-64
2023/01/15 11:22:44;;;;;;;5.77;3.67;;;7.30;61.50;;;;;;5009560;28;20639;-62
2023/01/15 11:25:10;;;;;;;5.23;4.00;;;7.40;62.10;;;;;;5000187;28;20188;-62
2023/01/15 11:27:36;;;;;;;7.80;4.43;;;7.50;61.00;;;;;;4986779;28;20192;-63
2023/01/15 11:30:05;;;;;;;5.07;3.87;;;7.60;61.60;;;;;;5008770;28;20190;-64
2023/01/15 11:32:32;;;;;;;8.20;4.20;;;7.60;59.80;;;;;;5001027;28;20338;-63
2023/01/15 11:35:15;;;;;;;5.20;3.90;;;7.60;59.80;;;;;;5006429;28;20662;-63
2023/01/15 11:37:41;;;;;;;4.60;3.77;;;7.60;58.30;;;;;;5004804;28;20234;-64
2023/01/15 11:40:17;;;;;;;5.87;4.60;;;7.60;58.90;;;;;;5007631;28;20188;-62
2023/01/15 11:51:13;;;;;;;4.97;4.00;;;7.80;59.40;;;;;;5007506;28;20747;-63
2023/01/15 11:53:47;;;;;;;6.07;4.17;;;7.80;59.20;;;;;;5000760;28;20196;-63
2023/01/15 11:56:17;;;;;;;5.37;4.20;;;7.90;59.20;;;;;;5004293;28;20314;-61
2023/01/15 11:58:49;;;;;;;6.13;3.90;;;8.00;60.10;;;;;;5001312;28;20186;-61
2023/01/15 12:01:31;;;;;;;8.50;4.20;;;8.00;59.20;;;;;;5003456;28;20184;-62
2023/01/15 12:03:59;;;;;;;8.90;5.93;;;8.00;59.30;;;;;;5008238;28;20188;-63
2023/01/15 12:06:26;;;;;;;13.03;5.77;;;7.80;58.40;;;;;;5012236;28;20191;-64
2023/01/15 12:09:04;;;;;;;7.27;5.33;;;7.80;59.00;;;;;;5009617;28;20180;-69
2023/01/15 12:11:48;;;;;;;10.57;5.80;;;7.90;59.50;;;;;;5007793;28;20184;-68
2023/01/15 12:14:43;;;;;;;11.00;7.00;;;7.90;59.30;;;;;;5018136;28;20234;-64
2023/01/15 12:17:30;;;;;;;14.07;6.13;;;7.80;59.00;;;;;;5007218;28;20258;-63
2023/01/15 12:20:35;;;;;;;6.50;4.93;;;7.90;60.40;;;;;;5034900;28;20211;-63
2023/01/15 12:23:16;;;;;;;8.43;4.90;;;7.80;60.80;;;;;;5006822;28;20192;-63
2023/01/15 12:26:18;;;;;;;5.90;4.80;;;7.90;60.50;;;;;;5005772;28;20520;-63
2023/01/15 12:29:04;;;;;;;5.83;4.37;;;7.90;61.30;;;;;;5000949;28;20198;-63
2023/01/15 12:32:00;;;;;;;5.57;3.77;;;7.80;61.50;;;;;;5003406;28;20439;-63
2023/01/15 12:34:50;;;;;;;8.03;5.27;;;7.80;60.90;;;;;;5005891;28;20189;-63
2023/01/15 12:37:23;;;;;;;7.30;4.40;;;7.80;59.80;;;;;;5013737;28;20509;-64
2023/01/15 12:39:53;;;;;;;8.07;5.17;;;7.80;60.30;;;;;;5008717;28;20180;-64
2023/01/15 12:45:15;;;;;;;6.07;4.20;;;7.70;61.60;;;;;;4999922;28;20671;-64
2023/01/15 12:48:01;;;;;;;8.00;4.60;;;7.60;61.40;;;;;;5000296;28;20438;-64
2023/01/15 12:50:46;;;;;;;4.80;3.90;;;7.60;61.50;;;;;;5007223;28;20283;-64
2023/01/15 12:53:24;;;;;;;6.77;4.17;;;7.50;62.50;;;;;;5006620;28;20746;-64
2023/01/15 12:55:55;;;;;;;8.50;5.30;;;7.50;62.10;;;;;;5005743;28;20541;-64
2023/01/15 12:58:37;;;;;;;7.33;4.90;;;7.50;60.40;;;;;;4999517;28;20441;-64
2023/01/15 13:01:15;;;;;;;7.27;5.20;;;7.50;60.70;;;;;;5028685;28;20917;-64
2023/01/15 13:04:16;;;;;;;6.73;5.27;;;7.40;60.80;;;;;;4997526;28;20218;-64
2023/01/15 13:06:47;;;;;;;7.47;4.63;;;7.50;61.20;;;;;;5010426;28;20471;-64
2023/01/15 13:09:37;;;;;;;7.23;5.00;;;7.40;63.50;;;;;;5009955;28;20283;-64
2023/01/15 13:12:11;;;;;;;7.60;4.93;;;7.40;63.80;;;;;;5012889;28;20430;-64
2023/01/15 13:14:36;;;;;;;7.57;5.23;;;7.40;64.10;;;;;;5013129;28;20493;-64
2023/01/15 13:17:22;;;;;;;7.33;5.40;;;7.40;64.20;;;;;;5004429;28;20470;-64
2023/01/15 13:20:17;;;;;;;12.80;6.83;;;7.40;63.40;;;;;;5005570;28;20267;-64
2023/01/15 13:22:58;;;;;;;9.00;6.47;;;7.40;61.80;;;;;;5012804;28;20446;-64
2023/01/15 13:25:42;;;;;;;8.97;6.60;;;7.40;63.00;;;;;;5016006;28;20483;-63
2023/01/15 13:28:18;;;;;;;10.60;6.70;;;7.30;63.00;;;;;;5011868;28;20196;-64
2023/01/15 13:31:13;;;;;;;11.50;6.90;;;7.20;63.60;;;;;;5009474;28;20430;-63
2023/01/15 13:33:44;;;;;;;10.63;7.17;;;7.20;64.10;;;;;;5039886;28;20436;-64
2023/01/15 13:36:33;;;;;;;10.30;7.33;;;7.20;65.40;;;;;;5004284;28;20466;-64
2023/01/15 13:39:04;;;;;;;40.77;22.30;;;7.20;65.30;;;;;;4989861;28;20447;-63
2023/01/15 13:44:22;;;;;;;26.97;18.50;;;7.20;64.20;;;;;;5013451;28;20569;-63
2023/01/15 13:47:10;;;;;;;42.70;24.33;;;7.20;63.90;;;;;;4998585;28;20466;-63
2023/01/15 13:49:44;;;;;;;20.50;13.13;;;7.20;65.10;;;;;;5010273;28;20431;-63
2023/01/15 13:52:32;;;;;;;17.73;11.30;;;7.20;65.60;;;;;;5015603;28;20448;-63
2023/01/15 13:55:07;;;;;;;16.73;12.10;;;7.00;65.50;;;;;;5009966;28;20434;-63
2023/01/15 13:57:36;;;;;;;26.20;16.13;;;7.00;67.20;;;;;;5013627;28;20473;-63
2023/01/15 14:00:05;;;;;;;22.13;15.20;;;6.90;68.00;;;;;;5012365;28;20446;-63
2023/01/15 14:02:33;;;;;;;21.13;14.03;;;6.90;68.00;;;;;;5009975;28;20447;-64
2023/01/15 14:05:10;;;;;;;15.03;10.17;;;6.80;68.60;;;;;;5006209;28;20442;-64
2023/01/15 14:07:37;;;;;;;17.13;9.87;;;6.80;69.00;;;;;;4993465;28;20538;-64
2023/01/15 14:10:20;;;;;;;14.53;8.83;;;6.80;69.20;;;;;;5009267;28;20431;-64